Time;durP1;ratioP1;P1;durP2;ratioP2;P2;SDS_P1;SDS_P2;PMS_P1;PMS_P2;Temp;Humidity;BMP_temperature;BMP_pressure;BME280_temperature;BME280_humidity;BME280_pressure;Samples;Min_cycle;Max_cycle;Signal;HPM_P1;HPM_P2
2022/12/19 00:01:31;;;;;;;312.42;133.72;;;;;;;-15.76;64.74;99297.20;1793801;79;28648;-67
2022/12/19 00:04:01;;;;;;;299.88;139.52;;;;;;;-15.78;64.61;99301.52;1775090;80;25735;-67
2022/12/19 00:06:29;;;;;;;285.48;119.37;;;;;;;-15.82;64.52;99298.96;1738648;81;25823;-68
2022/12/19 00:08:59;;;;;;;311.23;123.67;;;;;;;-15.85;64.47;99297.67;1715391;81;25810;-66
2022/12/19 00:11:28;;;;;;;308.05;124.42;;;;;;;-15.86;64.48;99298.10;1754175;81;25756;-68
2022/12/19 00:13:55;;;;;;;273.85;110.57;;;;;;;-15.88;64.51;99298.96;1754509;81;28338;-67
2022/12/19 00:16:25;;;;;;;249.75;102.65;;;;;;;-15.90;64.46;99297.67;1754387;81;25765;-69
2022/12/19 00:18:54;;;;;;;233.63;98.52;;;;;;;-15.93;64.47;99298.96;1754413;81;25746;-68
2022/12/19 00:21:23;;;;;;;239.90;101.27;;;;;;;-15.92;64.66;99294.22;1754319;81;25378;-67
2022/12/19 00:23:50;;;;;;;228.32;99.92;;;;;;;-15.92;64.58;99284.30;1754435;81;25758;-67
2022/12/19 00:26:22;;;;;;;234.27;99.70;;;;;;;-15.96;64.50;99284.77;1754531;81;28548;-67
2022/12/19 00:28:57;;;;;;;219.03;94.37;;;;;;;-16.00;64.53;99284.33;1727670;81;25685;-66
2022/12/19 00:31:27;;;;;;;203.18;84.65;;;;;;;-16.01;64.46;99284.33;1743746;82;25780;-67
2022/12/19 00:33:54;;;;;;;204.35;85.10;;;;;;;-16.06;64.59;99276.60;1713116;82;25686;-67
2022/12/19 00:36:25;;;;;;;199.77;85.70;;;;;;;-16.04;64.77;99276.14;1744395;82;25759;-66
2022/12/19 00:38:55;;;;;;;198.35;81.12;;;;;;;-16.00;64.91;99278.30;1723690;82;27395;-66
2022/12/19 00:41:26;;;;;;;207.35;82.12;;;;;;;-15.99;64.98;99282.17;1744436;82;25306;-67
2022/12/19 00:43:56;;;;;;;193.85;76.60;;;;;;;-15.96;65.03;99278.73;1637307;87;25858;-67
2022/12/19 00:46:24;;;;;;;192.37;77.05;;;;;;;-15.95;64.98;99281.31;1655721;86;25728;-67
2022/12/19 00:48:51;;;;;;;178.55;70.50;;;;;;;-15.93;65.02;99286.02;1656275;86;25780;-65
2022/12/19 00:51:25;;;;;;;170.05;70.67;;;;;;;-15.92;65.08;99283.00;1655328;86;27275;-69
2022/12/19 00:53:55;;;;;;;179.18;70.90;;;;;;;-15.93;65.18;99275.67;1654981;86;25835;-67
2022/12/19 00:56:26;;;;;;;162.22;66.80;;;;;;;-15.91;65.32;99273.09;1655523;86;25789;-66
2022/12/19 00:58:53;;;;;;;113.52;51.55;;;;;;;-15.90;65.30;99271.80;1655630;86;27062;-67
2022/12/19 01:01:25;;;;;;;153.75;63.15;;;;;;;-15.86;65.36;99282.58;1656178;86;26393;-67
2022/12/19 01:03:53;;;;;;;173.17;72.92;;;;;;;-15.82;65.42;99275.24;1599879;87;28241;-69
2022/12/19 01:06:20;;;;;;;169.40;69.92;;;;;;;-15.81;65.31;99272.19;1636120;86;25744;-66
2022/12/19 01:08:47;;;;;;;156.25;71.82;;;;;;;-15.82;65.20;99268.77;1636141;86;25852;-69
2022/12/19 01:11:14;;;;;;;162.25;69.25;;;;;;;-15.84;65.20;99267.91;1636159;86;25826;-65
2022/12/19 01:13:41;;;;;;;161.52;67.78;;;;;;;-15.82;65.18;99267.48;1636168;86;25772;-67
2022/12/19 01:16:11;;;;;;;146.22;63.50;;;;;;;-15.80;65.28;99263.56;1609591;87;26131;-67
2022/12/19 01:18:39;;;;;;;143.40;61.48;;;;;;;-15.80;65.39;99258.39;1626242;86;25793;-66
2022/12/19 01:21:10;;;;;;;149.00;62.27;;;;;;;-15.78;65.49;99256.23;1635868;86;26932;-67
2022/12/19 01:23:36;;;;;;;186.63;74.90;;;;;;;-15.75;65.48;99241.99;1636167;86;25812;-67
2022/12/19 01:26:03;;;;;;;160.50;70.10;;;;;;;-15.84;65.32;99223.92;1636219;86;26167;-66
2022/12/19 01:28:30;;;;;;;166.20;69.90;;;;;;;-15.74;65.38;99234.66;1636067;86;28131;-66
2022/12/19 01:30:57;;;;;;;160.30;67.25;;;;;;;-15.72;65.44;99225.16;1635978;86;25322;-67
2022/12/19 01:33:24;;;;;;;155.55;64.95;;;;;;;-15.71;65.46;99216.97;1635937;86;25793;-66
2022/12/19 01:35:50;;;;;;;147.80;61.83;;;;;;;-15.69;65.50;99212.62;1635883;86;25764;-68
2022/12/19 01:38:19;;;;;;;139.80;59.27;;;;;;;-15.67;65.46;99208.73;1635215;86;25894;-69
2022/12/19 01:40:55;;;;;;;140.77;58.05;;;;;;;-15.66;65.58;99202.27;1635653;84;27359;-68
2022/12/19 01:43:25;;;;;;;154.27;62.48;;;;;;;-15.62;65.63;99185.86;1723961;81;25776;-68
2022/12/19 01:45:56;;;;;;;147.75;61.85;;;;;;;-15.62;65.63;99188.88;1737357;81;25735;-66
2022/12/19 01:48:36;;;;;;;145.17;60.23;;;;;;;-15.61;65.65;99187.58;1733928;81;26542;-66
2022/12/19 01:51:11;;;;;;;167.90;66.82;;;;;;;-15.59;65.65;99182.40;1674201;84;25820;-67
2022/12/19 01:53:46;;;;;;;158.87;63.78;;;;;;;-15.58;65.67;99178.94;1673992;84;27431;-69
2022/12/19 01:56:14;;;;;;;159.87;79.58;;;;;;;-15.59;65.65;99175.49;1659510;84;43878;-67
2022/12/19 01:58:45;;;;;;;134.67;61.80;;;;;;;-15.34;65.53;99168.41;1674268;84;25812;-67
2022/12/19 02:01:14;;;;;;;137.12;58.17;;;;;;;-15.32;65.43;99166.63;1671356;84;25820;-67
2022/12/19 02:03:41;;;;;;;125.15;52.73;;;;;;;-15.34;65.50;99167.11;1666649;85;25743;-66
2022/12/19 02:06:09;;;;;;;129.95;55.20;;;;;;;-15.38;65.50;99161.08;1672858;81;27519;-68
2022/12/19 02:08:37;;;;;;;122.17;53.68;;;;;;;-15.39;65.60;99154.61;1715245;83;25795;-68
2022/12/19 02:11:04;;;;;;;118.50;51.68;;;;;;;-15.41;65.66;99149.44;1684483;85;25876;-67
2022/12/19 02:13:32;;;;;;;120.30;52.05;;;;;;;-15.39;65.70;99145.55;1715630;83;25855;-67
2022/12/19 02:16:34;;;;;;;116.57;51.92;;;;;;;-15.41;65.81;99142.97;1709464;83;25501;-67
2022/12/19 02:19:08;;;;;;;115.28;48.68;;;;;;;-15.41;65.80;99148.58;1688659;83;27311;-66
2022/12/19 02:21:50;;;;;;;125.78;49.73;;;;;;;-15.45;65.78;99150.31;1712956;83;25815;-67
2022/12/19 02:24:54;;;;;;;102.75;46.23;;;;;;;-15.48;65.87;99149.50;1715530;83;32349;-67
2022/12/19 02:27:53;;;;;;;103.38;45.05;;;;;;;-15.50;65.87;99144.77;1658386;86;26099;-67
2022/12/19 02:31:02;;;;;;;103.02;45.40;;;;;;;-15.50;66.01;99146.06;1636532;86;25755;-65
2022/12/19 02:33:46;;;;;;;107.07;45.43;;;;;;;-15.54;66.02;99137.91;1602499;88;28096;-69
2022/12/19 02:36:39;;;;;;;109.57;48.05;;;;;;;-15.56;66.04;99139.64;1599041;89;25789;-69
2022/12/19 02:39:11;;;;;;;150.25;66.95;;;;;;;-15.55;66.18;99131.02;1594588;89;25742;-71
2022/12/19 02:41:57;;;;;;;160.18;69.45;;;;;;;-15.49;66.40;99134.84;1626458;86;25748;-67
2022/12/19 02:44:34;;;;;;;165.35;74.62;;;;;;;-15.49;66.34;99131.81;1626604;88;25492;-66
2022/12/19 02:47:04;;;;;;;162.68;70.62;;;;;;;-15.52;66.52;99128.38;1627654;87;27439;-68
2022/12/19 02:49:34;;;;;;;160.10;73.10;;;;;;;-15.46;66.51;99124.47;1636413;87;25880;-67
2022/12/19 02:52:21;;;;;;;155.50;70.00;;;;;;;-15.43;66.53;99123.98;1636257;87;25790;-69
2022/12/19 02:54:53;;;;;;;145.30;60.35;;;;;;;-15.43;66.70;99121.40;1634493;87;25846;-67
2022/12/19 02:57:34;;;;;;;;;;;;;;;-15.42;66.92;99117.08;1638788;87;25795;-67
2022/12/19 03:00:13;;;;;;;97.42;43.08;;;;;;;-15.40;67.06;99114.91;1635838;87;28397;-67
2022/12/19 03:03:11;;;;;;;103.97;43.55;;;;;;;-15.35;67.22;99113.16;1627255;87;25819;-69
2022/12/19 03:05:45;;;;;;;106.85;45.63;;;;;;;-15.28;67.33;99106.63;1679195;85;25296;-66
2022/12/19 03:08:20;;;;;;;117.77;50.92;;;;;;;-15.22;67.36;99095.80;1648540;85;26280;-67
2022/12/19 03:10:55;;;;;;;105.52;44.48;;;;;;;-15.19;67.24;99094.88;1665577;85;26176;-68
2022/12/19 03:13:33;;;;;;;93.95;40.48;;;;;;;-15.14;67.28;99093.13;1623794;86;27720;-66
2022/12/19 03:16:02;;;;;;;124.90;52.50;;;;;;;-15.07;67.34;99085.70;1626224;86;25959;-66
2022/12/19 03:18:32;;;;;;;114.37;48.58;;;;;;;-15.03;67.25;99072.73;1614860;86;25864;-67
2022/12/19 03:21:47;;;;;;;108.00;43.70;;;;;;;-15.00;67.17;99077.02;1600809;86;25783;-67
2022/12/19 03:24:15;;;;;;;95.47;40.67;;;;;;;-14.99;67.08;99075.72;1584929;89;26234;-67
2022/12/19 03:27:08;;;;;;;114.17;47.48;;;;;;;-14.96;67.17;99076.10;1584934;89;28240;-68
2022/12/19 03:29:44;;;;;;;107.22;44.55;;;;;;;-14.95;67.23;99069.61;1592691;89;25811;-69
2022/12/19 03:32:13;;;;;;;84.52;37.65;;;;;;;-14.91;67.18;99076.07;1598573;89;25754;-67
2022/12/19 03:34:50;;;;;;;73.40;34.18;;;;;;;-14.89;67.19;99076.92;1598603;89;25918;-68
2022/12/19 03:37:21;;;;;;;76.05;32.83;;;;;;;-14.90;67.24;99074.77;1596716;89;25806;-66
2022/12/19 03:39:56;;;;;;;64.50;31.02;;;;;;;-14.89;67.36;99078.22;1598500;89;26900;-69
2022/12/19 03:45:13;;;;;;;76.25;30.37;;;;;;;-14.84;67.57;99085.48;1598466;89;25822;-67
2022/12/19 03:47:46;;;;;;;67.27;28.47;;;;;;;-14.80;67.72;99096.25;1598695;89;25818;-67
2022/12/19 03:50:13;;;;;;;63.63;28.73;;;;;;;-14.77;67.73;99102.72;1599562;89;25960;-67
2022/12/19 03:52:57;;;;;;;59.90;28.20;;;;;;;-14.72;67.67;99104.80;1600590;89;27300;-66
2022/12/19 03:55:31;;;;;;;55.92;27.48;;;;;;;-14.71;67.86;99093.56;1598723;89;25815;-67
2022/12/19 03:58:09;;;;;;;69.25;29.10;;;;;;;-14.72;67.85;99094.00;1598404;89;25771;-68
2022/12/19 04:00:39;;;;;;;61.05;28.17;;;;;;;-14.67;67.82;99099.15;1559212;91;26546;-67
2022/12/19 04:03:07;;;;;;;61.83;28.17;;;;;;;-14.63;67.89;99100.41;1574202;89;25809;-67
2022/12/19 04:05:37;;;;;;;62.13;29.90;;;;;;;-14.61;67.86;99102.98;1606812;88;27372;-68
2022/12/19 04:08:08;;;;;;;71.55;33.23;;;;;;;-14.60;67.82;99105.53;1606456;88;25808;-67
2022/12/19 04:10:54;;;;;;;71.33;33.67;;;;;;;-14.56;67.93;99104.22;1624558;87;25777;-67
2022/12/19 04:13:44;;;;;;;93.90;39.78;;;;;;;-14.50;67.95;99106.32;1621425;86;26726;-66
2022/12/19 04:16:19;;;;;;;143.30;57.00;;;;;;;-14.49;67.88;99109.34;1631527;86;25707;-67
2022/12/19 04:18:51;;;;;;;158.47;66.12;;;;;;;-14.50;67.95;99108.92;1667970;83;28231;-67
2022/12/19 04:21:23;;;;;;;160.85;66.45;;;;;;;-14.46;68.10;99105.39;1708729;82;26184;-67
2022/12/19 04:23:58;;;;;;;155.72;68.22;;;;;;;-14.44;68.05;99103.64;1683113;83;25709;-67
2022/12/19 04:26:27;;;;;;;150.78;65.95;;;;;;;-14.42;68.20;99096.71;1675788;83;26209;-68
2022/12/19 04:28:58;;;;;;;175.68;70.05;;;;;;;-14.36;68.28;99083.62;1683343;83;25776;-66
2022/12/19 04:31:25;;;;;;;176.80;70.40;;;;;;;-14.32;68.52;99082.72;1683561;83;28108;-66
2022/12/19 04:33:51;;;;;;;186.43;69.17;;;;;;;-14.27;68.58;99078.35;1683376;83;25799;-68
2022/12/19 04:36:18;;;;;;;159.75;62.00;;;;;;;-14.25;68.58;99066.66;1683036;83;25760;-68
2022/12/19 04:38:45;;;;;;;138.37;54.75;;;;;;;-14.22;68.86;99062.70;1688278;83;25792;-66
2022/12/19 04:41:11;;;;;;;124.33;51.45;;;;;;;-14.17;68.99;99064.81;1684303;83;25455;-67
2022/12/19 04:43:38;;;;;;;126.20;49.93;;;;;;;-14.11;69.17;99060.83;1694270;83;28667;-67
2022/12/19 04:46:05;;;;;;;97.55;42.53;;;;;;;-14.08;69.19;99067.72;1708907;83;26173;-68
2022/12/19 04:48:36;;;;;;;95.28;41.28;;;;;;;-14.05;69.18;99063.80;1650099;86;25743;-67
2022/12/19 04:51:05;;;;;;;91.37;40.63;;;;;;;-14.02;69.17;99063.33;1648079;85;25829;-68
2022/12/19 04:53:32;;;;;;;86.28;37.75;;;;;;;-13.97;69.17;99062.80;1647831;85;25769;-66
2022/12/19 04:56:04;;;;;;;84.52;39.70;;;;;;;-13.97;69.21;99055.45;1647344;86;26744;-68
2022/12/19 04:58:32;;;;;;;76.15;36.40;;;;;;;-13.93;69.25;99055.41;1663784;85;26391;-67
2022/12/19 05:01:03;;;;;;;86.97;38.83;;;;;;;-13.88;69.41;99046.23;1663673;85;25793;-68
2022/12/19 05:03:29;;;;;;;85.05;39.85;;;;;;;-13.84;69.74;99044.02;1669246;85;25805;-67
2022/12/19 05:06:12;;;;;;;90.35;40.80;;;;;;;-13.80;69.84;99045.70;1702722;83;26633;-66
2022/12/19 05:08:41;;;;;;;130.45;50.85;;;;;;;-13.74;69.83;99046.89;1688395;84;27367;-68
2022/12/19 05:11:12;;;;;;;135.05;51.73;;;;;;;-13.65;69.97;99049.38;1696396;84;25715;-69
2022/12/19 05:13:39;;;;;;;151.93;60.28;;;;;;;-13.61;70.23;99038.48;1691545;84;25732;-67
2022/12/19 05:16:09;;;;;;;128.72;51.42;;;;;;;-13.57;70.26;99042.32;1689122;84;25836;-67
2022/12/19 05:18:37;;;;;;;116.80;48.60;;;;;;;-13.51;70.47;99039.61;1691252;84;25771;-67
2022/12/19 05:21:05;;;;;;;106.35;42.13;;;;;;;-13.45;70.44;99040.41;1741757;79;28232;-67
2022/12/19 05:23:32;;;;;;;88.72;36.58;;;;;;;-13.40;70.33;99037.31;1793878;79;26206;-69
2022/12/19 05:26:01;;;;;;;79.25;36.75;;;;;;;-13.37;70.40;99032.04;1793839;80;25789;-69
2022/12/19 05:28:27;;;;;;;81.53;36.08;;;;;;;-13.31;70.60;99033.25;1793927;79;26173;-67
2022/12/19 05:31:11;;;;;;;80.57;36.75;;;;;;;-13.28;70.56;99029.31;1793978;80;25692;-69
2022/12/19 05:33:39;;;;;;;89.32;38.25;;;;;;;-13.24;70.51;99038.75;1773761;79;27382;-67
2022/12/19 05:36:09;;;;;;;79.25;35.28;;;;;;;-13.22;70.50;99036.98;1793887;79;25681;-68
2022/12/19 05:38:36;;;;;;;82.25;34.85;;;;;;;-13.19;70.51;99036.94;1772182;79;25741;-68
2022/12/19 05:41:09;;;;;;;73.92;32.85;;;;;;;-13.16;70.72;99038.20;1793619;80;25749;-68
2022/12/19 05:43:36;;;;;;;92.92;41.15;;;;;;;-13.10;70.70;99039.34;1749176;81;25794;-68
2022/12/19 05:46:05;;;;;;;78.70;37.83;;;;;;;-13.09;70.58;99028.06;1742733;80;28220;-67
2022/12/19 05:48:32;;;;;;;76.17;36.60;;;;;;;-13.11;70.40;99036.33;1727819;81;25935;-69
2022/12/19 05:50:59;;;;;;;90.57;41.35;;;;;;;-13.09;70.42;99033.70;1719104;81;25734;-67
2022/12/19 05:53:27;;;;;;;87.27;38.70;;;;;;;-13.05;70.40;99039.28;1719369;81;26083;-67
2022/12/19 05:56:04;;;;;;;80.83;41.15;;;;;;;-13.03;70.42;99038.34;1719036;81;25793;-67
2022/12/19 05:58:32;;;;;;;88.15;43.33;;;;;;;-13.03;70.54;99029.23;1656410;85;28534;-67
2022/12/19 06:01:19;;;;;;;88.22;42.75;;;;;;;-13.02;70.66;99027.06;1656500;85;25845;-69
2022/12/19 06:03:46;;;;;;;84.77;42.78;;;;;;;-12.99;70.80;99024.41;1628454;86;25790;-69
2022/12/19 06:06:16;;;;;;;90.42;46.18;;;;;;;-12.95;70.88;99032.58;1628509;86;25832;-67
2022/12/19 06:08:43;;;;;;;80.40;40.88;;;;;;;-12.92;70.89;99037.70;1628822;86;25815;-68
2022/12/19 06:11:11;;;;;;;81.22;40.28;;;;;;;-12.93;70.94;99026.91;1628983;86;27729;-67
2022/12/19 06:13:39;;;;;;;74.25;39.70;;;;;;;-12.91;71.00;99030.76;1628630;86;25839;-67
2022/12/19 06:16:13;;;;;;;81.87;43.50;;;;;;;-12.91;71.12;99035.52;1628618;86;25823;-68
2022/12/19 06:18:42;;;;;;;77.62;40.05;;;;;;;-12.90;71.04;99028.14;1551215;91;25876;-67
2022/12/19 06:21:19;;;;;;;80.28;39.08;;;;;;;-12.86;71.07;99028.50;1551485;91;25784;-70
2022/12/19 06:23:46;;;;;;;77.62;39.20;;;;;;;-12.84;71.08;99027.18;1551513;91;27608;-67
2022/12/19 06:26:17;;;;;;;75.75;37.30;;;;;;;-12.80;71.10;99034.88;1551647;91;25817;-70
2022/12/19 06:28:43;;;;;;;74.45;37.40;;;;;;;-12.76;71.07;99030.04;1551383;91;25861;-69
2022/12/19 06:31:11;;;;;;;81.87;39.03;;;;;;;-12.73;71.07;99037.38;1551356;91;25821;-67
2022/12/19 06:33:38;;;;;;;75.80;37.45;;;;;;;-12.72;71.07;99032.16;1551781;91;25749;-68
2022/12/19 06:36:10;;;;;;;85.25;40.70;;;;;;;-12.70;71.07;99038.19;1538487;91;27842;-67
2022/12/19 06:38:37;;;;;;;77.97;37.85;;;;;;;-12.70;70.99;99029.09;1434030;98;25872;-70
2022/12/19 06:43:50;;;;;;;77.90;40.67;;;;;;;-12.72;70.93;99012.64;1433335;98;25835;-67
2022/12/19 06:46:17;;;;;;;77.70;39.45;;;;;;;-12.69;70.96;99019.09;1450874;97;25799;-69
2022/12/19 06:48:44;;;;;;;92.10;42.70;;;;;;;-12.70;70.83;99017.37;1457241;96;27789;-67
2022/12/19 06:51:10;;;;;;;86.85;42.05;;;;;;;-12.71;70.75;99016.11;1434311;98;25847;-68
2022/12/19 06:53:37;;;;;;;96.37;44.95;;;;;;;-12.71;70.71;99017.41;1457603;96;25373;-66
2022/12/19 06:56:05;;;;;;;125.20;70.15;;;;;;;-12.74;70.73;99019.61;1443406;97;25896;-67
2022/12/19 06:58:33;;;;;;;103.53;51.80;;;;;;;-12.72;70.76;99027.39;1449044;97;25902;-70
2022/12/19 07:01:00;;;;;;;112.25;55.17;;;;;;;-12.71;70.67;99021.31;1468884;96;28861;-70
2022/12/19 07:03:37;;;;;;;112.25;54.53;;;;;;;-12.71;70.49;99022.61;1491501;94;25844;-67
2022/12/19 07:06:05;;;;;;;120.10;55.43;;;;;;;-12.73;70.44;99021.77;1498765;95;25906;-67
2022/12/19 07:08:32;;;;;;;120.50;56.37;;;;;;;-12.72;70.43;99020.89;1510250;94;25693;-67
2022/12/19 07:10:59;;;;;;;234.92;80.92;;;;;;;-12.72;70.45;99021.75;1477939;95;25896;-68
2022/12/19 07:13:26;;;;;;;356.68;97.05;;;;;;;-12.71;70.47;99020.00;1478119;95;27819;-67
2022/12/19 07:15:59;;;;;;;179.38;69.65;;;;;;;-12.70;70.34;99024.33;1504190;92;25369;-68
2022/12/19 07:18:28;;;;;;;123.85;57.78;;;;;;;-12.70;70.28;99027.78;1519939;92;25911;-68
2022/12/19 07:20:56;;;;;;;125.62;59.25;;;;;;;-12.69;70.28;99016.94;1519866;91;25792;-68
2022/12/19 07:23:23;;;;;;;127.75;61.33;;;;;;;-12.69;70.27;99012.59;1585661;88;26300;-68
2022/12/19 07:25:50;;;;;;;138.20;65.97;;;;;;;-12.68;70.25;99003.05;1585626;88;27451;-67
2022/12/19 07:28:17;;;;;;;119.87;56.45;;;;;;;-12.66;70.24;99006.45;1585724;88;26488;-70
2022/12/19 07:30:44;;;;;;;121.20;59.50;;;;;;;-12.69;70.21;99014.34;1585647;88;25829;-68
2022/12/19 07:33:11;;;;;;;125.85;63.78;;;;;;;-12.71;70.26;99009.61;1585928;88;25880;-68
2022/12/19 07:35:38;;;;;;;132.32;63.98;;;;;;;-12.67;70.37;99011.23;1635275;83;25724;-67
2022/12/19 07:38:06;;;;;;;136.12;65.62;;;;;;;-12.65;70.45;99008.17;1681647;83;28203;-66
2022/12/19 07:40:34;;;;;;;133.47;67.80;;;;;;;-12.61;70.55;99007.23;1681383;83;25780;-68
2022/12/19 07:43:05;;;;;;;182.25;90.22;;;;;;;-12.57;70.61;99008.89;1724605;81;25804;-68
2022/12/19 07:45:33;;;;;;;242.43;121.22;;;;;;;-12.54;70.53;98998.41;1664891;84;25824;-68
2022/12/19 07:48:01;;;;;;;235.43;113.88;;;;;;;-12.51;70.43;99003.55;1657475;85;25887;-68
2022/12/19 07:50:29;;;;;;;216.70;107.70;;;;;;;-12.49;70.40;99001.78;1657666;84;27386;-70
2022/12/19 07:52:57;;;;;;;176.82;89.90;;;;;;;-12.48;70.48;98999.16;1657670;84;25839;-67
2022/12/19 07:55:25;;;;;;;141.88;74.92;;;;;;;-12.43;70.60;99005.10;1657632;84;25782;-68
2022/12/19 07:57:52;;;;;;;129.27;66.97;;;;;;;-12.38;70.69;99008.92;1657672;85;26587;-70
2022/12/19 08:00:20;;;;;;;126.95;62.98;;;;;;;-12.34;70.80;98996.71;1657433;85;25815;-68
2022/12/19 08:02:47;;;;;;;117.67;61.20;;;;;;;-12.31;70.90;98992.72;1672345;84;27419;-70
2022/12/19 08:05:14;;;;;;;120.25;59.58;;;;;;;-12.26;71.11;99000.00;1702640;82;25834;-68
2022/12/19 08:07:41;;;;;;;123.60;63.42;;;;;;;-12.22;71.24;98983.00;1702632;82;25784;-67
2022/12/19 08:10:11;;;;;;;124.75;66.07;;;;;;;-12.15;71.36;98989.77;1702779;82;25806;-68
2022/12/19 08:12:37;;;;;;;129.03;66.50;;;;;;;-12.05;71.48;98989.97;1702855;82;25775;-70
2022/12/19 08:15:05;;;;;;;137.28;70.12;;;;;;;-11.96;71.58;98984.17;1702960;83;27727;-68
2022/12/19 08:17:33;;;;;;;131.57;67.22;;;;;;;-11.86;71.81;98980.45;1702888;82;25778;-70
2022/12/19 08:20:00;;;;;;;140.35;71.07;;;;;;;-11.73;71.84;98983.16;1702719;82;26207;-68
2022/12/19 08:22:30;;;;;;;129.85;70.97;;;;;;;-11.63;71.81;98984.64;1703115;82;25760;-68
2022/12/19 08:24:57;;;;;;;134.75;69.97;;;;;;;-11.54;71.90;98979.20;1702758;82;25330;-69
2022/12/19 08:27:25;;;;;;;144.97;73.50;;;;;;;-11.42;71.98;98982.81;1702965;82;27414;-68
2022/12/19 08:29:51;;;;;;;156.75;79.45;;;;;;;-11.30;72.06;98969.47;1702740;82;25865;-68
2022/12/19 08:32:19;;;;;;;143.47;75.12;;;;;;;-11.22;72.02;98972.31;1702691;82;26084;-68
2022/12/19 08:34:46;;;;;;;144.50;73.47;;;;;;;-11.13;72.12;98965.58;1702755;82;26098;-68
2022/12/19 08:37:12;;;;;;;138.62;73.52;;;;;;;-11.02;72.19;98968.77;1703139;82;26228;-67
2022/12/19 08:39:39;;;;;;;139.18;71.45;;;;;;;-10.90;72.39;98959.75;1702552;82;28574;-68
2022/12/19 08:42:06;;;;;;;140.82;73.45;;;;;;;-10.76;72.59;98956.32;1727062;79;25843;-68
2022/12/19 08:44:32;;;;;;;131.65;72.58;;;;;;;-10.62;72.74;98953.70;1763318;79;25860;-68
2022/12/19 08:46:59;;;;;;;130.70;70.70;;;;;;;-10.47;72.77;98947.64;1770494;79;25905;-69
2022/12/19 08:49:26;;;;;;;138.47;73.17;;;;;;;-10.31;72.93;98945.00;1731463;81;25739;-68
2022/12/19 08:51:52;;;;;;;129.55;68.90;;;;;;;-10.12;73.10;98940.03;1729182;81;28489;-68
2022/12/19 08:54:19;;;;;;;130.52;68.72;;;;;;;-9.88;73.17;98934.91;1752109;80;25647;-68
2022/12/19 08:56:45;;;;;;;126.12;69.03;;;;;;;-9.56;73.21;98932.58;1770926;79;25904;-68
2022/12/19 08:59:12;;;;;;;129.47;68.35;;;;;;;-9.27;73.08;98927.66;1774192;79;26499;-67
2022/12/19 09:01:39;;;;;;;130.40;68.05;;;;;;;-9.02;72.88;98928.13;1790925;78;25560;-68
2022/12/19 09:04:05;;;;;;;121.30;63.87;;;;;;;-8.88;72.69;98916.72;1796075;78;27310;-68
2022/12/19 09:06:34;;;;;;;115.17;61.08;;;;;;;-8.80;72.58;98910.30;1790996;78;26062;-67
2022/12/19 09:09:02;;;;;;;111.57;57.98;;;;;;;-8.68;72.62;98912.92;1794420;78;25737;-69
2022/12/19 09:11:30;;;;;;;111.42;54.85;;;;;;;-8.48;72.69;98912.20;1790822;78;25638;-68
2022/12/19 09:13:57;;;;;;;93.12;46.90;;;;;;;-8.32;72.69;98904.15;1792760;78;25606;-71
2022/12/19 09:16:27;;;;;;;99.75;49.60;;;;;;;-8.12;72.86;98900.75;1792875;78;27724;-68
2022/12/19 09:18:57;;;;;;;93.55;46.65;;;;;;;-7.82;72.92;98906.53;1792176;78;25678;-68
2022/12/19 09:21:27;;;;;;;95.00;48.10;;;;;;;-7.54;72.82;98918.94;1793279;78;25756;-70
2022/12/19 09:23:57;;;;;;;98.37;48.38;;;;;;;-7.35;72.49;98916.39;1791015;78;25725;-69
2022/12/19 09:26:26;;;;;;;93.50;48.28;;;;;;;-7.17;72.38;98915.63;1795050;78;25385;-69
2022/12/19 09:28:53;;;;;;;88.75;45.40;;;;;;;-6.98;72.20;98907.35;1792198;78;27398;-71
2022/12/19 09:31:23;;;;;;;84.87;43.33;;;;;;;-6.81;72.22;98891.33;1795878;78;25657;-69
2022/12/19 09:33:51;;;;;;;81.72;41.98;;;;;;;-6.63;72.22;98894.44;1791260;78;25717;-69
2022/12/19 09:36:22;;;;;;;78.33;39.20;;;;;;;-6.45;72.19;98885.73;1794452;78;25795;-68
2022/12/19 09:38:50;;;;;;;72.45;37.88;;;;;;;-6.34;72.09;98883.92;1792851;78;25765;-69
2022/12/19 09:41:28;;;;;;;84.13;43.08;;;;;;;-6.17;72.13;98884.47;1794128;78;27278;-68
2022/12/19 09:44:20;;;;;;;113.32;49.67;;;;;;;-5.98;72.04;98887.92;1706164;82;25498;-69
2022/12/19 09:46:51;;;;;;;109.60;45.92;;;;;;;-5.79;71.92;98878.18;1707042;82;25840;-70
2022/12/19 09:49:28;;;;;;;103.32;49.25;;;;;;;-5.58;71.98;98864.46;1706717;82;26246;-71
2022/12/19 09:52:30;;;;;;;108.00;49.10;;;;;;;-5.38;72.00;98858.20;1706879;82;25748;-70
2022/12/19 09:55:25;;;;;;;75.90;36.83;;;;;;;-5.18;71.96;98841.77;1706868;82;28156;-72
2022/12/19 09:58:36;;;;;;;70.28;32.00;;;;;;;-4.87;71.76;98838.41;1672107;84;25821;-72
2022/12/19 10:01:11;;;;;;;70.45;36.23;;;;;;;-4.61;71.55;98844.08;1667123;84;25836;-69
2022/12/19 10:03:42;;;;;;;69.42;35.88;;;;;;;-4.42;71.49;98844.30;1617522;87;25868;-69
2022/12/19 10:06:22;;;;;;;69.05;35.00;;;;;;;-4.26;71.26;98839.52;1625933;88;25851;-69
2022/12/19 10:08:51;;;;;;;67.32;33.73;;;;;;;-4.11;71.23;98842.17;1624096;86;27570;-69
2022/12/19 10:11:25;;;;;;;71.75;36.58;;;;;;;-3.91;70.99;98841.04;1636814;86;25600;-69
2022/12/19 10:14:18;;;;;;;80.10;37.93;;;;;;;-3.65;71.03;98834.28;1616840;87;25837;-69
2022/12/19 10:17:15;;;;;;;81.60;37.33;;;;;;;-3.45;70.71;98820.77;1609992;87;26556;-69
2022/12/19 10:20:21;;;;;;;68.22;33.00;;;;;;;-3.19;70.62;98826.30;1607808;88;25887;-71
2022/12/19 10:23:16;;;;;;;53.95;24.70;;;;;;;-2.99;70.15;98820.66;1602589;88;27464;-69
2022/12/19 10:29:18;;;;;;;52.17;24.57;;;;;;;-2.41;69.71;98818.39;1546582;91;25903;-70
2022/12/19 10:31:55;;;;;;;47.83;22.82;;;;;;;-2.20;69.37;98789.28;1517666;94;26172;-68
2022/12/19 10:34:29;;;;;;;53.63;24.43;;;;;;;-1.93;69.44;98791.44;1465958;96;26609;-69
2022/12/19 10:37:00;;;;;;;44.75;23.95;;;;;;;-1.57;69.42;98795.30;1493572;94;27680;-70
2022/12/19 10:39:32;;;;;;;45.58;22.90;;;;;;;-1.22;69.04;98797.75;1482871;95;25600;-72
2022/12/19 10:42:20;;;;;;;74.10;36.13;;;;;;;-0.93;68.74;98796.21;1526945;93;26381;-71
2022/12/19 10:44:50;;;;;;;46.55;23.47;;;;;;;-0.84;67.80;98787.61;1501916;93;25859;-72
2022/12/19 10:47:17;;;;;;;56.98;26.97;;;;;;;-0.71;67.89;98787.13;1499427;94;26054;-69
2022/12/19 10:49:43;;;;;;;59.98;27.62;;;;;;;-0.49;67.80;98793.12;1496625;94;28554;-69
2022/12/19 10:52:11;;;;;;;55.12;28.45;;;;;;;-0.30;67.48;98791.32;1496283;94;26023;-72
2022/12/19 10:54:42;;;;;;;46.98;25.40;;;;;;;-0.11;67.23;98781.06;1496767;94;26530;-69
2022/12/19 10:57:25;;;;;;;54.58;27.65;;;;;;;-0.02;66.89;98769.32;1509116;94;25903;-69
2022/12/19 11:00:15;;;;;;;59.53;30.27;;;;;;;0.01;66.81;98758.94;1518737;92;25370;-69
2022/12/19 11:02:46;;;;;;;76.65;38.63;;;;;;;0.09;67.00;98760.56;1533389;90;27431;-70
2022/12/19 11:05:32;;;;;;;76.37;36.98;;;;;;;0.36;66.83;98757.16;1562998;90;25709;-71
2022/12/19 11:08:16;;;;;;;73.83;36.45;;;;;;;0.51;66.22;98756.50;1495232;94;25916;-72
2022/12/19 11:10:47;;;;;;;53.78;30.48;;;;;;;0.69;66.38;98752.95;1535330;87;25844;-71
2022/12/19 11:13:30;;;;;;;54.33;27.60;;;;;;;0.98;66.12;98756.86;1628414;87;25779;-70
2022/12/19 11:16:00;;;;;;;49.45;26.57;;;;;;;1.24;65.44;98748.66;1574015;89;28117;-71
2022/12/19 11:18:45;;;;;;;50.12;25.00;;;;;;;1.39;65.41;98748.80;1571897;91;26476;-71
2022/12/19 11:21:31;;;;;;;50.17;24.50;;;;;;;1.52;64.67;98742.87;1572170;91;25938;-71
2022/12/19 11:24:18;;;;;;;50.65;25.12;;;;;;;1.67;64.75;98745.64;1567504;91;25901;-70
2022/12/19 11:26:47;;;;;;;53.65;26.85;;;;;;;1.79;64.27;98736.67;1570470;91;25900;-76
2022/12/19 11:29:25;;;;;;;48.73;23.65;;;;;;;1.78;63.63;98732.80;1572222;91;27401;-74
2022/12/19 11:32:01;;;;;;;51.23;24.90;;;;;;;1.72;63.42;98724.80;1580516;89;25902;-72
2022/12/19 11:34:34;;;;;;;52.08;25.05;;;;;;;1.72;63.33;98723.95;1596524;89;25826;-73
2022/12/19 11:37:20;;;;;;;48.42;24.80;;;;;;;1.75;63.36;98728.56;1596657;88;26462;-72
2022/12/19 11:39:58;;;;;;;44.05;24.25;;;;;;;1.77;63.18;98729.28;1596006;89;25708;-72